Time;durP1;ratioP1;P1;durP2;ratioP2;P2;SDS_P1;SDS_P2;PMS_P1;PMS_P2;Temp;Humidity;BMP_temperature;BMP_pressure;BME280_temperature;BME280_humidity;BME280_pressure;Samples;Min_cycle;Max_cycle;Signal;HPM_P1;HPM_P2
2022/06/23 00:02:02;;;;;;;4.85;3.33;;;15.10;99.90;;;;;;4880489;29;20438;-70
2022/06/23 00:04:35;;;;;;;6.63;4.00;;;15.10;99.90;;;;;;4880926;29;20367;-70
2022/06/23 00:07:19;;;;;;;6.88;3.40;;;15.10;99.90;;;;;;4880476;29;20056;-70
2022/06/23 00:09:45;;;;;;;4.68;3.10;;;15.00;99.90;;;;;;4880132;29;20101;-70
2022/06/23 00:12:19;;;;;;;4.90;3.65;;;15.00;99.90;;;;;;4880077;29;20099;-70
2022/06/23 00:14:47;;;;;;;5.85;3.63;;;15.00;99.90;;;;;;4880855;29;20076;-70
2022/06/23 00:17:35;;;;;;;3.75;3.00;;;14.90;99.90;;;;;;4878903;29;20446;-70
2022/06/23 00:20:15;;;;;;;5.18;3.55;;;14.90;99.90;;;;;;4880549;29;20060;-70
2022/06/23 00:22:45;;;;;;;4.78;3.40;;;14.90;99.90;;;;;;4879906;29;20278;-70
2022/06/23 00:25:27;;;;;;;5.50;3.70;;;14.90;99.90;;;;;;4879965;29;20060;-70
2022/06/23 00:27:54;;;;;;;5.53;4.03;;;14.80;99.90;;;;;;4880586;29;20069;-70
2022/06/23 00:30:25;;;;;;;5.40;3.67;;;14.90;99.90;;;;;;4880149;29;20053;-70
2022/06/23 00:32:51;;;;;;;4.78;3.88;;;14.80;99.90;;;;;;4880424;29;20158;-70
2022/06/23 00:35:18;;;;;;;5.35;4.20;;;14.80;99.90;;;;;;4880304;29;20136;-70
2022/06/23 00:37:49;;;;;;;5.55;3.97;;;14.80;99.90;;;;;;4879797;29;20059;-70
2022/06/23 00:40:20;;;;;;;4.72;3.42;;;14.80;99.90;;;;;;4880477;29;20092;-70
2022/06/23 00:43:03;;;;;;;5.47;4.00;;;14.80;99.90;;;;;;4880060;29;20049;-70
2022/06/23 00:45:40;;;;;;;5.88;4.40;;;14.70;99.90;;;;;;4880343;29;20045;-69
2022/06/23 00:48:27;;;;;;;8.02;4.35;;;14.70;99.90;;;;;;4879796;29;20056;-70
2022/06/23 00:51:03;;;;;;;6.10;4.40;;;14.60;99.90;;;;;;4879781;29;20049;-70
2022/06/23 00:54:03;;;;;;;5.68;4.22;;;14.60;99.90;;;;;;4880029;29;20084;-70
2022/06/23 00:56:45;;;;;;;5.63;4.15;;;14.60;99.90;;;;;;4880499;29;20064;-70
2022/06/23 00:59:32;;;;;;;7.93;5.38;;;14.50;99.90;;;;;;4879553;29;20373;-70
2022/06/23 01:02:04;;;;;;;5.35;4.40;;;14.50;99.90;;;;;;4879615;29;20049;-69
2022/06/23 01:04:47;;;;;;;6.30;4.38;;;14.50;99.90;;;;;;4879663;29;20061;-70
2022/06/23 01:07:21;;;;;;;6.70;4.38;;;14.50;99.90;;;;;;4878490;29;20057;-70
2022/06/23 01:09:55;;;;;;;5.88;4.55;;;14.50;99.90;;;;;;4882473;29;20053;-70
2022/06/23 01:12:30;;;;;;;5.50;4.13;;;14.40;99.90;;;;;;4883309;29;20041;-70
2022/06/23 01:14:59;;;;;;;6.40;4.60;;;14.40;99.90;;;;;;4882561;29;20057;-70
2022/06/23 01:17:48;;;;;;;5.95;4.35;;;14.40;99.90;;;;;;4883095;29;20092;-70
2022/06/23 01:20:38;;;;;;;6.82;4.95;;;14.40;99.90;;;;;;4882472;29;20061;-70
2022/06/23 01:23:18;;;;;;;5.57;4.00;;;14.40;99.90;;;;;;4883032;29;20100;-70
2022/06/23 01:26:09;;;;;;;7.18;4.70;;;14.30;99.90;;;;;;4883016;29;20049;-70
2022/06/23 01:28:37;;;;;;;7.65;4.40;;;14.30;99.90;;;;;;4882935;29;20136;-70
2022/06/23 01:31:21;;;;;;;6.40;4.65;;;14.30;99.90;;;;;;4883703;29;20112;-71
2022/06/23 01:34:02;;;;;;;5.95;4.70;;;14.30;99.90;;;;;;4882910;29;20041;-70
2022/06/23 01:36:36;;;;;;;6.63;4.97;;;14.30;99.90;;;;;;4883404;29;20056;-70
2022/06/23 01:39:04;;;;;;;7.35;5.00;;;14.30;99.90;;;;;;4882368;29;20051;-70
2022/06/23 01:41:42;;;;;;;6.60;5.03;;;14.30;99.90;;;;;;4882802;29;20049;-70
2022/06/23 01:44:13;;;;;;;9.05;5.53;;;14.30;99.90;;;;;;4881758;29;20045;-70
2022/06/23 01:46:43;;;;;;;9.68;5.68;;;14.30;99.90;;;;;;4882450;29;20343;-70
2022/06/23 01:49:26;;;;;;;7.00;5.13;;;14.30;99.90;;;;;;4881507;29;20052;-70
2022/06/23 01:52:13;;;;;;;8.38;5.70;;;14.30;99.90;;;;;;4882585;29;20129;-70
2022/06/23 01:54:39;;;;;;;8.60;5.15;;;14.20;99.90;;;;;;4878560;29;20060;-70
2022/06/23 01:57:41;;;;;;;9.07;6.30;;;14.20;99.90;;;;;;4881278;29;20089;-70
2022/06/23 02:00:15;;;;;;;7.53;5.45;;;14.20;99.90;;;;;;4878509;29;20447;-70
2022/06/23 02:02:53;;;;;;;8.07;5.20;;;14.20;99.90;;;;;;4881155;29;20392;-71
2022/06/23 02:05:26;;;;;;;8.35;5.57;;;14.20;99.90;;;;;;4881974;29;20482;-70
2022/06/23 02:08:29;;;;;;;7.85;6.03;;;14.10;99.90;;;;;;4882591;29;20057;-70
2022/06/23 02:11:13;;;;;;;7.55;5.35;;;14.10;99.90;;;;;;4883010;29;20060;-70
2022/06/23 02:13:51;;;;;;;8.02;5.35;;;14.10;99.90;;;;;;4881875;29;20561;-69
2022/06/23 02:16:28;;;;;;;8.00;5.72;;;14.10;99.90;;;;;;4882116;29;20063;-70
2022/06/23 02:19:24;;;;;;;8.35;5.88;;;14.10;99.90;;;;;;4882355;29;20385;-70
2022/06/23 02:22:13;;;;;;;8.55;5.72;;;14.10;99.90;;;;;;4864825;29;20053;-69
2022/06/23 02:25:12;;;;;;;7.68;5.50;;;14.00;99.90;;;;;;4881330;29;20067;-70
2022/06/23 02:27:41;;;;;;;8.43;5.68;;;14.00;99.90;;;;;;4881972;29;20053;-69
2022/06/23 02:30:20;;;;;;;9.77;6.35;;;14.00;99.90;;;;;;4881905;29;20048;-69
2022/06/23 02:33:00;;;;;;;8.80;5.93;;;14.00;99.90;;;;;;4882426;29;20049;-69
2022/06/23 02:35:31;;;;;;;8.63;5.80;;;14.00;99.90;;;;;;4880759;29;20052;-69
2022/06/23 02:38:05;;;;;;;9.18;5.30;;;14.00;99.90;;;;;;4881767;29;20064;-70
2022/06/23 02:40:34;;;;;;;8.93;6.07;;;14.00;99.90;;;;;;4882731;29;20057;-70
2022/06/23 02:43:26;;;;;;;8.55;5.65;;;14.00;99.90;;;;;;4882601;29;20192;-70
2022/06/23 02:46:22;;;;;;;8.15;5.50;;;14.00;99.90;;;;;;4881875;29;20059;-70
2022/06/23 02:49:20;;;;;;;10.00;6.25;;;13.90;99.90;;;;;;4880454;29;20064;-70
2022/06/23 02:52:09;;;;;;;8.50;5.78;;;13.90;99.90;;;;;;4881559;29;20049;-70
2022/06/23 02:55:17;;;;;;;8.98;6.05;;;13.90;99.90;;;;;;4881980;29;20045;-70
2022/06/23 02:57:49;;;;;;;10.68;5.82;;;13.90;99.90;;;;;;4881107;29;20538;-70
2022/06/23 03:00:24;;;;;;;9.68;5.78;;;13.90;99.90;;;;;;4881375;29;20049;-70
2022/06/23 03:03:13;;;;;;;8.68;5.55;;;13.90;99.90;;;;;;4881277;29;20056;-70
2022/06/23 03:05:54;;;;;;;9.68;6.40;;;13.80;99.90;;;;;;4865244;29;20064;-70
2022/06/23 03:08:23;;;;;;;8.93;5.97;;;13.90;99.90;;;;;;4881245;29;20064;-70
2022/06/23 03:11:15;;;;;;;10.30;5.95;;;13.80;99.90;;;;;;4880202;29;20514;-70
2022/06/23 03:13:55;;;;;;;9.00;6.28;;;13.90;99.90;;;;;;4881595;29;20045;-70
2022/06/23 03:16:46;;;;;;;8.98;5.95;;;13.90;99.90;;;;;;4881038;29;20516;-70
2022/06/23 03:19:27;;;;;;;9.35;5.95;;;13.90;99.90;;;;;;4879920;29;20060;-70
2022/06/23 03:22:09;;;;;;;9.88;6.10;;;14.00;99.90;;;;;;4881115;29;20477;-69
2022/06/23 03:25:00;;;;;;;9.93;6.45;;;14.00;99.90;;;;;;4880916;29;20081;-69
2022/06/23 03:27:42;;;;;;;10.05;6.45;;;14.00;99.90;;;;;;4880809;29;20528;-70
2022/06/23 03:30:17;;;;;;;8.93;6.55;;;14.00;99.90;;;;;;4880762;29;20045;-70
2022/06/23 03:32:51;;;;;;;9.43;6.20;;;14.10;99.90;;;;;;4880380;29;20140;-70
2022/06/23 03:35:36;;;;;;;9.95;6.43;;;14.10;99.90;;;;;;4880935;29;20052;-70
2022/06/23 03:38:06;;;;;;;9.57;6.38;;;14.20;99.90;;;;;;4881214;29;20458;-69
2022/06/23 03:43:50;;;;;;;9.63;6.22;;;14.20;99.90;;;;;;4880574;29;20049;-69
2022/06/23 03:46:21;;;;;;;9.75;6.45;;;14.20;99.90;;;;;;4880598;29;20049;-69
2022/06/23 03:48:56;;;;;;;11.95;6.82;;;14.20;99.90;;;;;;4880449;29;20045;-69
2022/06/23 03:51:27;;;;;;;7.78;5.65;;;14.20;99.90;;;;;;4880481;29;20091;-69
2022/06/23 03:54:05;;;;;;;9.05;6.57;;;14.20;99.90;;;;;;4881195;29;20045;-69
2022/06/23 03:57:04;;;;;;;10.45;6.45;;;14.20;99.90;;;;;;4880906;29;20117;-69
2022/06/23 03:59:34;;;;;;;9.43;6.22;;;14.30;99.90;;;;;;4880352;29;20064;-69
2022/06/23 04:02:28;;;;;;;10.48;6.18;;;14.30;99.90;;;;;;4880188;29;20048;-70
2022/06/23 04:05:14;;;;;;;8.13;5.80;;;14.30;99.90;;;;;;4880401;29;20136;-69
2022/06/23 04:07:47;;;;;;;9.00;5.68;;;14.30;99.90;;;;;;4878556;29;20061;-69
2022/06/23 04:10:20;;;;;;;8.43;6.03;;;14.30;99.90;;;;;;4879938;29;20144;-69
2022/06/23 04:12:51;;;;;;;7.78;5.75;;;14.40;99.90;;;;;;4880760;29;20044;-69
2022/06/23 04:15:30;;;;;;;9.85;6.28;;;14.40;99.90;;;;;;4880442;29;20466;-69
2022/06/23 04:18:04;;;;;;;9.60;6.43;;;14.40;99.90;;;;;;4880114;29;20045;-70
2022/06/23 04:20:33;;;;;;;9.85;6.40;;;14.40;99.90;;;;;;4880036;29;20136;-69
2022/06/23 04:23:04;;;;;;;9.60;6.28;;;14.40;99.90;;;;;;4879844;29;20091;-69
2022/06/23 04:26:01;;;;;;;8.70;5.28;;;14.40;99.90;;;;;;4879963;29;20061;-69
2022/06/23 04:28:29;;;;;;;9.15;6.10;;;14.50;99.90;;;;;;4872759;29;20103;-69
2022/06/23 04:30:58;;;;;;;9.00;6.60;;;14.80;99.90;;;;;;4880640;29;20049;-69
2022/06/23 04:33:26;;;;;;;8.63;6.20;;;14.50;99.90;;;;;;4880080;29;20473;-70
2022/06/23 04:35:56;;;;;;;8.95;6.50;;;14.50;99.90;;;;;;4879777;29;20041;-70
2022/06/23 04:38:28;;;;;;;8.45;6.50;;;14.50;99.90;;;;;;4879800;29;20052;-70
2022/06/23 04:41:18;;;;;;;9.48;6.32;;;14.60;99.90;;;;;;4879833;29;20149;-69
2022/06/23 04:43:55;;;;;;;9.18;6.68;;;14.60;99.90;;;;;;4882158;29;20049;-70
2022/06/23 04:46:37;;;;;;;9.32;6.25;;;14.60;99.90;;;;;;4883726;29;20099;-69
2022/06/23 04:49:20;;;;;;;8.63;6.38;;;14.70;99.90;;;;;;4883761;29;20063;-69
2022/06/23 04:52:14;;;;;;;9.88;6.72;;;14.70;99.90;;;;;;4883422;29;20477;-69
2022/06/23 04:54:54;;;;;;;9.23;6.55;;;14.70;99.90;;;;;;4883530;29;20056;-69
2022/06/23 04:57:38;;;;;;;9.65;6.82;;;14.70;99.90;;;;;;4884063;29;20060;-69
2022/06/23 05:00:04;;;;;;;9.57;6.68;;;14.80;99.90;;;;;;4882784;29;20053;-69
2022/06/23 05:02:47;;;;;;;9.80;7.47;;;14.80;99.90;;;;;;4883815;29;20105;-69
2022/06/23 05:05:35;;;;;;;9.52;6.18;;;14.80;99.90;;;;;;4882338;29;20091;-69
2022/06/23 05:08:26;;;;;;;9.80;7.05;;;14.80;99.90;;;;;;4882292;29;20064;-69
2022/06/23 05:11:13;;;;;;;9.88;6.72;;;15.00;99.90;;;;;;4881478;29;20100;-69
2022/06/23 05:13:49;;;;;;;9.73;6.90;;;14.90;99.90;;;;;;4883220;29;20053;-68
2022/06/23 05:16:27;;;;;;;11.10;6.72;;;15.00;99.90;;;;;;4883728;29;20049;-69
2022/06/23 05:18:55;;;;;;;8.82;6.38;;;15.00;99.90;;;;;;4882961;29;20136;-68
2022/06/23 05:21:30;;;;;;;9.35;7.13;;;15.00;99.90;;;;;;4882677;29;20539;-69
2022/06/23 05:24:12;;;;;;;9.55;6.43;;;15.00;99.90;;;;;;4883067;29;20136;-69
2022/06/23 05:26:52;;;;;;;7.85;6.30;;;15.10;99.90;;;;;;4883089;29;20084;-68
2022/06/23 05:29:27;;;;;;;10.02;6.45;;;15.10;99.90;;;;;;4882954;29;20057;-68
2022/06/23 05:32:01;;;;;;;11.43;6.80;;;15.20;99.90;;;;;;4882871;29;20446;-74
2022/06/23 05:34:33;;;;;;;9.25;6.65;;;15.20;99.90;;;;;;4883090;29;20045;-71
2022/06/23 05:37:33;;;;;;;9.82;7.07;;;15.20;99.90;;;;;;4881836;29;20060;-72
2022/06/23 05:40:29;;;;;;;9.40;6.75;;;15.30;99.90;;;;;;4882802;29;20045;-72
2022/06/23 05:43:00;;;;;;;11.25;6.97;;;15.30;99.90;;;;;;4882700;29;20045;-72
2022/06/23 05:45:31;;;;;;;10.45;7.07;;;15.40;99.90;;;;;;4883471;29;20481;-71
2022/06/23 05:47:58;;;;;;;9.65;7.22;;;15.40;99.90;;;;;;4882073;29;20053;-71
2022/06/23 05:50:49;;;;;;;8.35;6.18;;;15.50;99.90;;;;;;4883317;29;20052;-71
2022/06/23 05:53:20;;;;;;;11.35;7.07;;;15.50;99.90;;;;;;4883089;29;20090;-72
2022/06/23 05:56:24;;;;;;;8.40;6.60;;;15.60;99.90;;;;;;4882235;29;20059;-72
2022/06/23 05:59:00;;;;;;;11.32;7.00;;;15.70;99.90;;;;;;4879698;29;20068;-72
2022/06/23 06:01:53;;;;;;;12.27;7.00;;;15.70;99.90;;;;;;4882317;29;20052;-71
2022/06/23 06:04:21;;;;;;;10.10;7.43;;;15.80;99.90;;;;;;4882299;29;20109;-71
2022/06/23 06:06:47;;;;;;;11.55;6.80;;;15.80;99.90;;;;;;4882186;29;20045;-71
2022/06/23 06:09:35;;;;;;;10.77;6.60;;;15.90;99.90;;;;;;4882207;29;20065;-72
2022/06/23 06:12:14;;;;;;;10.20;6.28;;;15.90;99.90;;;;;;4882252;29;20060;-72
2022/06/23 06:14:57;;;;;;;9.73;7.28;;;16.00;99.90;;;;;;4882147;29;20049;-72
2022/06/23 06:17:26;;;;;;;9.95;6.50;;;16.10;99.90;;;;;;4882945;29;20045;-71
2022/06/23 06:19:53;;;;;;;7.60;6.30;;;16.20;99.90;;;;;;4882031;29;20041;-72
2022/06/23 06:22:43;;;;;;;10.82;7.20;;;16.20;99.90;;;;;;4881944;29;20048;-72
2022/06/23 06:25:20;;;;;;;7.80;6.40;;;16.30;99.90;;;;;;4882002;29;20050;-72
2022/06/23 06:27:46;;;;;;;9.85;6.60;;;16.40;99.90;;;;;;4881954;29;20052;-72
2022/06/23 06:30:17;;;;;;;10.30;6.75;;;16.40;99.90;;;;;;4882096;29;20049;-72
2022/06/23 06:32:45;;;;;;;9.55;6.43;;;16.50;99.90;;;;;;4882114;29;20044;-72
2022/06/23 06:35:25;;;;;;;8.38;6.65;;;16.50;99.90;;;;;;4881705;29;20127;-72
2022/06/23 06:38:06;;;;;;;9.02;6.28;;;16.60;99.90;;;;;;4881755;29;20053;-72
2022/06/23 06:40:34;;;;;;;8.45;6.60;;;17.30;99.90;;;;;;4880988;29;20057;-72
2022/06/23 06:43:05;;;;;;;9.68;6.10;;;16.70;99.90;;;;;;4882016;29;20055;-72
2022/06/23 06:45:36;;;;;;;8.02;5.75;;;16.80;99.90;;;;;;4881225;29;20055;-71
2022/06/23 06:48:03;;;;;;;9.55;6.10;;;16.90;99.90;;;;;;4881311;29;20585;-72
2022/06/23 06:50:38;;;;;;;9.38;5.88;;;16.90;99.90;;;;;;4881989;29;20053;-72
2022/06/23 06:53:13;;;;;;;7.72;5.70;;;17.00;99.90;;;;;;4881193;29;20577;-71
2022/06/23 06:55:45;;;;;;;8.38;5.97;;;17.10;99.90;;;;;;4881471;29;20124;-72
2022/06/23 06:58:18;;;;;;;8.10;5.20;;;17.20;99.90;;;;;;4881394;29;20572;-71
2022/06/23 07:00:58;;;;;;;8.13;5.68;;;17.30;99.90;;;;;;4881012;29;20490;-72
2022/06/23 07:03:25;;;;;;;7.68;6.20;;;17.30;99.90;;;;;;4881262;29;20041;-71
2022/06/23 07:06:07;;;;;;;7.65;5.80;;;17.40;99.90;;;;;;4879771;29;20052;-71
2022/06/23 07:08:39;;;;;;;7.30;5.57;;;17.50;99.90;;;;;;4881021;29;20048;-71
2022/06/23 07:11:25;;;;;;;8.90;6.50;;;17.50;99.90;;;;;;4881718;29;20136;-71
2022/06/23 07:14:03;;;;;;;7.40;5.68;;;17.60;99.90;;;;;;4881926;29;20049;-71
2022/06/23 07:16:35;;;;;;;9.27;5.55;;;17.70;99.90;;;;;;4880195;29;20511;-71
2022/06/23 07:19:19;;;;;;;6.15;5.50;;;17.70;99.90;;;;;;4881586;29;20057;-71
2022/06/23 07:21:51;;;;;;;8.18;5.53;;;17.80;99.90;;;;;;4881663;29;20386;-71
2022/06/23 07:24:27;;;;;;;7.22;5.50;;;17.90;99.90;;;;;;4880958;29;20483;-71
2022/06/23 07:27:12;;;;;;;5.97;5.28;;;18.00;99.90;;;;;;4881327;29;20053;-70
2022/06/23 07:29:43;;;;;;;7.68;5.25;;;18.10;99.90;;;;;;4881341;29;20052;-72
2022/06/23 07:32:36;;;;;;;9.90;5.65;;;18.20;99.90;;;;;;4880841;29;20045;-71
2022/06/23 07:35:20;;;;;;;9.55;6.32;;;18.30;99.90;;;;;;4880718;29;20060;-72
2022/06/23 07:37:51;;;;;;;6.40;5.13;;;18.40;99.90;;;;;;4879715;29;20054;-71
2022/06/23 07:40:20;;;;;;;7.03;5.03;;;18.50;99.90;;;;;;4880843;29;20049;-72
2022/06/23 07:42:58;;;;;;;8.90;5.57;;;18.50;99.90;;;;;;4879508;29;20051;-72
2022/06/23 07:45:35;;;;;;;8.43;5.53;;;18.60;99.90;;;;;;4880071;29;20052;-71
2022/06/23 07:48:01;;;;;;;7.82;5.53;;;18.70;99.90;;;;;;4880677;29;20139;-72
2022/06/23 07:50:28;;;;;;;6.82;5.20;;;18.80;99.90;;;;;;4880585;29;20128;-72
2022/06/23 07:52:55;;;;;;;7.32;5.75;;;18.90;99.90;;;;;;4881086;29;20056;-73
2022/06/23 07:55:26;;;;;;;7.60;4.93;;;19.00;99.90;;;;;;4880532;29;20445;-71
2022/06/23 07:57:53;;;;;;;6.38;5.15;;;19.10;99.90;;;;;;4881043;29;20057;-72
2022/06/23 08:00:19;;;;;;;6.68;5.00;;;19.20;99.90;;;;;;4880446;29;20053;-72
2022/06/23 08:03:00;;;;;;;6.38;4.63;;;19.30;99.90;;;;;;4880358;29;20097;-72
2022/06/23 08:05:39;;;;;;;8.65;5.22;;;19.40;99.90;;;;;;4880869;29;20088;-73
2022/06/23 08:08:10;;;;;;;7.70;5.43;;;19.50;99.90;;;;;;4880384;29;20101;-75
2022/06/23 08:10:36;;;;;;;6.03;4.70;;;19.60;99.90;;;;;;4878762;29;20113;-71
2022/06/23 08:13:21;;;;;;;6.28;4.57;;;19.70;99.90;;;;;;4880267;29;20053;-72
2022/06/23 08:18:50;;;;;;;8.40;4.70;;;19.90;99.90;;;;;;4879238;29;20049;-71
2022/06/23 08:21:37;;;;;;;7.38;4.50;;;20.00;99.90;;;;;;4878935;29;20514;-71
2022/06/23 08:24:11;;;;;;;9.05;4.78;;;20.10;99.90;;;;;;4879003;29;20053;-71
2022/06/23 08:26:41;;;;;;;5.68;4.80;;;20.20;99.90;;;;;;4878059;29;20049;-73
2022/06/23 08:29:11;;;;;;;6.50;4.60;;;20.30;99.90;;;;;;4880218;29;20196;-73
2022/06/23 08:31:38;;;;;;;6.95;3.92;;;20.40;99.90;;;;;;4878716;29;20045;-73
2022/06/23 08:34:05;;;;;;;5.10;4.07;;;20.50;99.90;;;;;;4879562;29;20088;-73
2022/06/23 08:36:54;;;;;;;7.30;3.90;;;20.50;99.90;;;;;;4877790;29;20091;-72
2022/06/23 08:39:28;;;;;;;5.45;3.67;;;20.60;99.90;;;;;;4879965;29;20064;-72
2022/06/23 08:42:22;;;;;;;6.55;3.85;;;20.70;99.90;;;;;;4879613;29;20127;-73
2022/06/23 08:45:01;;;;;;;4.63;3.88;;;20.80;99.90;;;;;;4878987;29;20044;-73
2022/06/23 08:47:39;;;;;;;5.32;4.20;;;20.80;99.90;;;;;;4879092;29;20490;-73
2022/06/23 08:50:13;;;;;;;5.00;3.55;;;20.90;99.90;;;;;;4879527;29;20123;-74
2022/06/23 08:52:47;;;;;;;5.25;3.60;;;20.90;99.90;;;;;;4879381;29;20046;-73
2022/06/23 08:55:16;;;;;;;7.40;4.05;;;21.00;99.90;;;;;;4879363;29;20056;-74
2022/06/23 08:58:03;;;;;;;6.28;3.30;;;21.10;99.90;;;;;;4878673;29;20049;-74
2022/06/23 09:01:01;;;;;;;5.78;3.53;;;21.20;99.90;;;;;;4879300;29;20060;-73
2022/06/23 09:03:29;;;;;;;4.43;3.13;;;21.30;99.90;;;;;;4879473;29;20339;-74
2022/06/23 09:06:05;;;;;;;6.50;3.50;;;21.40;99.90;;;;;;4878665;29;20049;-74
2022/06/23 09:08:45;;;;;;;8.02;3.65;;;21.50;99.90;;;;;;4878878;29;20497;-73
2022/06/23 09:11:23;;;;;;;3.38;2.85;;;21.60;99.90;;;;;;4878968;29;20603;-72
2022/06/23 09:14:09;;;;;;;4.32;2.72;;;21.60;99.90;;;;;;4878842;29;20053;-72
2022/06/23 09:16:56;;;;;;;5.57;3.25;;;21.70;99.90;;;;;;4878637;29;20197;-71
2022/06/23 09:19:47;;;;;;;3.67;2.83;;;21.80;99.90;;;;;;4878977;29;20089;-73
2022/06/23 09:22:28;;;;;;;5.25;2.55;;;21.90;99.90;;;;;;4879233;29;20064;-72
2022/06/23 09:25:12;;;;;;;3.75;2.30;;;21.90;99.90;;;;;;4879148;29;20552;-71
2022/06/23 09:27:47;;;;;;;5.88;3.13;;;22.00;99.90;;;;;;4878708;29;20064;-72
2022/06/23 09:30:26;;;;;;;2.92;2.20;;;22.10;99.90;;;;;;4880371;29;20087;-72
2022/06/23 09:33:20;;;;;;;3.97;2.75;;;22.20;99.90;;;;;;4882349;29;20088;-71
2022/06/23 09:35:48;;;;;;;4.45;2.83;;;22.20;99.90;;;;;;4882040;29;20053;-71
2022/06/23 09:38:45;;;;;;;4.28;2.10;;;22.30;99.90;;;;;;4881864;29;20216;-73
2022/06/23 09:41:23;;;;;;;3.92;2.97;;;22.40;99.90;;;;;;4882208;29;20136;-72
2022/06/23 09:44:06;;;;;;;3.13;2.33;;;22.50;99.90;;;;;;4882039;29;20059;-71
2022/06/23 09:46:52;;;;;;;4.28;2.80;;;22.60;99.90;;;;;;4882914;29;20053;-72
2022/06/23 09:49:40;;;;;;;3.38;2.35;;;22.70;99.90;;;;;;4882148;29;20063;-72
2022/06/23 09:52:27;;;;;;;5.47;2.60;;;22.70;99.90;;;;;;4871822;29;20080;-73
2022/06/23 09:55:04;;;;;;;4.05;2.08;;;22.80;99.90;;;;;;4882821;29;20068;-72
2022/06/23 09:57:54;;;;;;;3.53;2.33;;;22.90;99.90;;;;;;4881756;29;20528;-73
2022/06/23 10:00:52;;;;;;;2.78;1.80;;;23.00;99.90;;;;;;4882117;29;20049;-72
2022/06/23 10:03:29;;;;;;;5.68;2.40;;;23.10;99.90;;;;;;4881933;29;20044;-69
2022/06/23 10:06:03;;;;;;;2.88;1.90;;;23.20;99.90;;;;;;4881749;29;20120;-72
2022/06/23 10:08:50;;;;;;;4.13;2.00;;;23.30;99.90;;;;;;4881626;29;20104;-72
2022/06/23 10:11:53;;;;;;;4.05;2.00;;;23.40;99.90;;;;;;4882170;29;20093;-72
2022/06/23 10:14:46;;;;;;;3.30;1.70;;;23.40;99.90;;;;;;4880951;29;20041;-75
2022/06/23 10:17:42;;;;;;;3.45;2.30;;;23.50;99.90;;;;;;4882216;29;20135;-73
2022/06/23 10:20:34;;;;;;;5.32;2.15;;;23.50;99.90;;;;;;4882090;29;20116;-71
2022/06/23 10:23:18;;;;;;;3.25;1.45;;;23.70;99.90;;;;;;4881633;29;20045;-70
2022/06/23 10:26:10;;;;;;;5.28;1.60;;;23.70;99.90;;;;;;4881787;29;20421;-72
2022/06/23 10:29:16;;;;;;;3.42;1.60;;;23.80;99.90;;;;;;4880460;29;20044;-73
2022/06/23 10:32:12;;;;;;;2.00;1.80;;;23.90;99.90;;;;;;4881145;29;20201;-70
2022/06/23 10:34:52;;;;;;;1.98;1.50;;;24.00;99.90;;;;;;4881534;29;20131;-72
2022/06/23 10:37:39;;;;;;;3.03;2.05;;;24.00;99.90;;;;;;4881710;29;20101;-72
2022/06/23 10:40:24;;;;;;;2.80;1.75;;;24.10;99.90;;;;;;4880878;29;20107;-70
2022/06/23 10:43:01;;;;;;;2.90;1.90;;;24.20;99.90;;;;;;4880956;29;20068;-71
2022/06/23 10:45:36;;;;;;;6.80;1.92;;;24.30;99.90;;;;;;4881383;29;20393;-72
2022/06/23 10:48:01;;;;;;;3.35;1.80;;;24.40;99.80;;;;;;4881136;29;20473;-73
2022/06/23 10:50:46;;;;;;;2.75;1.70;;;24.40;99.90;;;;;;4880979;29;20087;-70
2022/06/23 10:53:31;;;;;;;5.45;1.95;;;24.40;99.90;;;;;;4881204;29;20211;-72
2022/06/23 10:56:24;;;;;;;2.70;2.10;;;24.50;99.90;;;;;;4880484;29;20060;-71
2022/06/23 10:59:28;;;;;;;5.57;1.90;;;24.60;99.80;;;;;;4880834;29;20092;-73
2022/06/23 11:01:57;;;;;;;2.78;1.70;;;24.60;99.90;;;;;;4880610;29;20101;-73
2022/06/23 11:04:29;;;;;;;6.70;1.77;;;24.70;99.30;;;;;;4880535;29;20053;-73
2022/06/23 11:07:10;;;;;;;2.65;1.50;;;24.80;99.40;;;;;;4880352;29;20053;-74
2022/06/23 11:10:02;;;;;;;2.80;1.65;;;24.90;98.60;;;;;;4881632;29;20457;-73
2022/06/23 11:12:43;;;;;;;2.15;1.65;;;24.90;98.40;;;;;;4880984;29;20116;-72
2022/06/23 11:15:35;;;;;;;3.10;1.70;;;25.00;97.40;;;;;;4880121;29;20056;-71
2022/06/23 11:18:30;;;;;;;2.80;1.40;;;25.10;96.90;;;;;;4880554;29;20391;-73
2022/06/23 11:20:58;;;;;;;4.93;1.63;;;25.20;95.90;;;;;;4876247;29;20049;-72
2022/06/23 11:23:38;;;;;;;3.60;1.77;;;25.20;95.60;;;;;;4878806;29;20092;-73
2022/06/23 11:26:04;;;;;;;4.40;1.60;;;25.30;94.90;;;;;;4879787;29;20056;-74
2022/06/23 11:29:00;;;;;;;2.95;1.55;;;25.40;94.50;;;;;;4880351;29;20370;-75
2022/06/23 11:31:58;;;;;;;2.25;1.63;;;25.50;94.40;;;;;;4880224;29;20092;-75
2022/06/23 11:34:45;;;;;;;3.15;1.58;;;25.50;94.80;;;;;;4879910;29;20052;-72
2022/06/23 11:37:30;;;;;;;5.63;1.65;;;25.50;94.50;;;;;;4880578;29;20053;-75
2022/06/23 11:40:10;;;;;;;5.45;1.67;;;25.60;93.30;;;;;;4879637;29;20096;-73
2022/06/23 11:42:41;;;;;;;2.30;1.50;;;25.60;92.90;;;;;;4880200;29;20466;-73
2022/06/23 11:45:08;;;;;;;3.67;1.60;;;25.70;92.60;;;;;;4880481;29;20060;-74
2022/06/23 11:47:36;;;;;;;4.93;1.67;;;25.80;92.30;;;;;;4878697;29;20052;-74
2022/06/23 11:50:33;;;;;;;2.58;1.20;;;25.80;92.10;;;;;;4879990;29;20041;-74
2022/06/23 11:53:40;;;;;;;2.40;1.30;;;25.90;92.30;;;;;;4879814;29;20045;-73
2022/06/23 11:56:35;;;;;;;3.13;1.27;;;25.90;91.70;;;;;;4880491;29;20067;-71
2022/06/23 11:59:28;;;;;;;2.55;1.10;;;26.00;91.30;;;;;;4879859;29;20446;-73
2022/06/23 12:01:54;;;;;;;4.00;1.20;;;26.10;90.60;;;;;;4879633;29;20045;-72
2022/06/23 12:04:35;;;;;;;2.05;1.00;;;26.20;89.20;;;;;;4879287;29;20165;-74
2022/06/23 12:07:25;;;;;;;2.28;1.17;;;26.30;90.00;;;;;;4863438;29;20064;-70
2022/06/23 12:10:13;;;;;;;1.58;1.15;;;26.30;86.90;;;;;;4880039;29;20366;-75
2022/06/23 12:12:41;;;;;;;2.45;1.40;;;26.40;84.90;;;;;;4880059;29;20055;-74
2022/06/23 12:15:09;;;;;;;2.33;1.40;;;26.50;83.20;;;;;;4879130;29;20063;-75
2022/06/23 12:17:39;;;;;;;1.67;1.00;;;26.50;81.70;;;;;;4880869;29;20426;-75
2022/06/23 12:20:25;;;;;;;1.25;1.00;;;26.60;80.40;;;;;;4880798;29;20049;-75
2022/06/23 12:23:05;;;;;;;1.40;1.10;;;26.60;82.20;;;;;;4880461;29;20049;-76
2022/06/23 12:25:55;;;;;;;1.30;1.20;;;26.70;80.40;;;;;;4880500;29;20068;-75
2022/06/23 12:28:43;;;;;;;2.85;1.20;;;26.80;78.30;;;;;;4878979;29;20513;-76
2022/06/23 12:31:14;;;;;;;2.03;1.00;;;26.90;79.80;;;;;;4879940;29;20402;-76
2022/06/23 12:34:03;;;;;;;5.22;1.65;;;26.90;78.40;;;;;;4879810;29;20049;-76
2022/06/23 12:36:48;;;;;;;1.73;1.30;;;27.00;77.30;;;;;;4878555;29;20057;-75
2022/06/23 12:39:24;;;;;;;3.75;1.00;;;27.00;77.80;;;;;;4879157;29;20064;-75
2022/06/23 12:41:59;;;;;;;2.03;1.38;;;27.00;76.30;;;;;;4879818;29;20456;-77
2022/06/23 12:44:56;;;;;;;1.95;1.10;;;27.10;75.90;;;;;;4880283;29;20048;-76
2022/06/23 12:47:35;;;;;;;1.92;1.35;;;27.10;78.10;;;;;;4863785;29;20125;-75
2022/06/23 12:50:24;;;;;;;2.17;1.20;;;27.20;75.60;;;;;;4880583;29;20514;-76
2022/06/23 12:53:30;;;;;;;1.65;1.10;;;27.30;75.80;;;;;;4879689;29;20052;-72
2022/06/23 12:56:36;;;;;;;2.30;1.10;;;27.30;73.90;;;;;;4879678;29;20482;-74
2022/06/23 12:59:28;;;;;;;4.68;1.45;;;27.40;73.50;;;;;;4863081;29;20108;-76
2022/06/23 13:02:04;;;;;;;2.95;1.20;;;27.50;72.00;;;;;;4876855;29;20081;-72
2022/06/23 13:04:35;;;;;;;2.20;1.13;;;27.50;71.30;;;;;;4881091;29;20053;-75
2022/06/23 13:07:38;;;;;;;2.20;1.20;;;27.50;71.90;;;;;;4883262;29;20199;-77
2022/06/23 13:10:19;;;;;;;3.70;1.20;;;27.60;71.70;;;;;;4873422;29;20065;-75
2022/06/23 13:13:13;;;;;;;1.77;1.33;;;27.60;70.70;;;;;;4883064;29;20061;-74
2022/06/23 13:16:00;;;;;;;1.88;1.30;;;27.60;72.20;;;;;;4883213;29;20052;-73
2022/06/23 13:18:34;;;;;;;3.28;1.30;;;27.70;71.40;;;;;;4883133;29;20052;-74
2022/06/23 13:21:26;;;;;;;2.08;1.50;;;27.80;69.80;;;;;;4883178;29;20049;-75
2022/06/23 13:24:07;;;;;;;2.20;1.27;;;27.80;69.30;;;;;;4882195;29;20049;-74
2022/06/23 13:26:57;;;;;;;1.77;1.10;;;27.80;68.80;;;;;;4883085;29;20060;-74
2022/06/23 13:29:27;;;;;;;1.92;1.30;;;27.90;69.50;;;;;;4883099;29;20474;-72
2022/06/23 13:32:11;;;;;;;2.40;1.35;;;27.90;69.10;;;;;;4882990;29;20052;-75
2022/06/23 13:34:53;;;;;;;3.70;1.52;;;28.00;69.10;;;;;;4882944;29;20111;-75
2022/06/23 13:37:28;;;;;;;2.22;1.27;;;28.10;69.30;;;;;;4883459;29;20060;-76
2022/06/23 13:40:32;;;;;;;1.75;1.23;;;28.10;69.00;;;;;;4883672;29;20041;-75
2022/06/23 13:43:09;;;;;;;2.67;1.30;;;28.20;69.60;;;;;;4882690;29;20057;-74
2022/06/23 13:45:39;;;;;;;1.40;1.13;;;28.20;69.10;;;;;;4882357;29;20055;-76
2022/06/23 13:48:13;;;;;;;2.05;1.42;;;28.20;67.90;;;;;;4882011;29;20137;-74
2022/06/23 13:50:54;;;;;;;2.08;1.45;;;28.30;67.10;;;;;;4883205;29;20060;-76
2022/06/23 13:53:47;;;;;;;2.53;1.30;;;28.30;68.40;;;;;;4882560;29;20049;-75
2022/06/23 13:56:38;;;;;;;1.50;1.33;;;28.30;68.20;;;;;;4882859;29;20508;-75
2022/06/23 13:59:22;;;;;;;1.40;1.30;;;28.30;67.50;;;;;;4882544;29;20052;-75